Plusieurs avertissements en vigueur   plus d'informations


d'avertissement pour Orages more information blitzortung!


d'avertissement pour Pluie more information rain snow radar


Visitez nos sites météorologiques autres:

Template documentation
and downloads

And another site



Rapports METAR proximité

   
EBAW - Antwerp
Mise à jour: 27-05-2018 21:20
Light Showers, Pluie, Peu de nuages  
Light Showers, Pluie, Peu de nuages  
   Vent: Est 9.3 km/h
Vent: Est 9.3 km/h
Température: 21°C
Point de rosée: 18°C
Humidité: 83%
Baromètre: 1016 hPa
Nuageux: Peu de nuages
visibilité: More than 10 km
Détails des nuages: Peu de nuages 2500 ft
EBAW 271920Z 10005KT 9999 -SHRA FEW025 21/18 Q1016 NOSIG
EBLG - Liège
Mise à jour: 27-05-2018 21:20
Claires  
Claires  
   Vent: ESE 16.7 km/h
Vent: ESE 16.7 km/h
Température: 22°C
Point de rosée: 15°C
Humidité: 65%
Baromètre: 1017 hPa
visibilité: More than 10 km
Détails des nuages: Claires
EBLG 271920Z 12009KT 080V140 CAVOK 22/15 Q1017 NOSIG
EBCV - Mons/Bergen
Mise à jour: 27-05-2018 21:25
Claires  
Claires  
   Vent: Est 5.6 km/h
Vent: Est 5.6 km/h
Température: 19°C
Point de rosée: 16°C
Humidité: 83%
Baromètre: 1015 hPa
Nuageux: Claires
visibilité: More than 10 km
Détails des nuages: Claires
EBCV 271925Z AUTO 10003KT 9999 NCD 19/16 Q1015 BLU
EHBK - Maastricht
Mise à jour: 27-05-2018 21:25
Partiellement nuageux  
Partiellement nuageux  
   Vent: Est 14.8 km/h
Vent: Est 14.8 km/h
Température: 20°C
Point de rosée: 17°C
Humidité: 83%
Baromètre: 1016 hPa
Nuageux: Partiellement nuageux
visibilité: More than 10 km
Détails des nuages: Partiellement nuageux
EHBK 271925Z AUTO 10008KT 070V150 9999 NSC 20/17 Q1016 NOSIG
ELLX - Luxemburg
Mise à jour: 27-05-2018 21:20
Claires  
Claires  
   Vent: NE 16.7 km/h
Vent: NE 16.7 km/h
Température: 21°C
Point de rosée: 14°C
Humidité: 64%
Baromètre: 1018 hPa
visibilité: More than 10 km
Détails des nuages: Claires
ELLX 271920Z 05009KT CAVOK 21/14 Q1018 NOSIG
EBOS - Oostende
Mise à jour: 27-05-2018 21:20
Peu de nuages  
Peu de nuages  
   Vent: North 9.3 km/h
Vent: North 9.3 km/h
Température: 19°C
Point de rosée: 15°C
Humidité: 78%
Baromètre: 1015 hPa
Nuageux: Peu de nuages
visibilité: More than 10 km
Détails des nuages: Peu de nuages 3500 ft
EBOS 271920Z 35005KT 9999 FEW035TCU 19/15 Q1015 NOSIG

Script développé par  Saratoga-weather.org Adapté pour le modèle par  Weerstation Leuven

Vous trouverez notre info météo Également à:

Weather Underground

Équipement que nous utilisons:

Station de Météo
Davis VP2

Programme Météo
Meteohub

Ordinateur Météo
RaspberryPI 2

Provider
OVH

Davis VP2

Meteohub

RaspberryPI 2

OVH